Time;durP1;ratioP1;P1;durP2;ratioP2;P2;SDS_P1;SDS_P2;PMS_P1;PMS_P2;Temp;Humidity;BMP_temperature;BMP_pressure;BME280_temperature;BME280_humidity;BME280_pressure;Samples;Min_cycle;Max_cycle;Signal;HPM_P1;HPM_P2
2021/06/18 00:02:35;;;;;;;12.82;8.27;;;25.50;50.20;;;;;;6241001;27;81000;-67
2021/06/18 00:05:35;;;;;;;12.20;7.72;;;25.50;50.30;;;;;;6245118;27;81565;-67
2021/06/18 00:08:37;;;;;;;10.88;7.00;;;25.40;50.00;;;;;;6240169;27;82107;-68
2021/06/18 00:11:38;;;;;;;11.30;6.97;;;25.50;50.20;;;;;;6237297;27;80691;-68
2021/06/18 00:14:38;;;;;;;14.93;8.13;;;25.40;50.00;;;;;;6236537;28;80493;-67
2021/06/18 00:17:39;;;;;;;11.77;8.27;;;25.50;50.40;;;;;;6233836;27;82928;-67
2021/06/18 00:20:39;;;;;;;11.15;6.88;;;25.40;50.00;;;;;;6235196;27;80248;-67
2021/06/18 00:23:40;;;;;;;11.93;6.85;;;25.40;50.20;;;;;;6234471;28;80073;-68
2021/06/18 00:26:40;;;;;;;9.60;6.45;;;25.40;50.20;;;;;;6236461;28;80784;-68
2021/06/18 00:29:41;;;;;;;11.40;7.90;;;25.40;50.20;;;;;;6234222;27;83169;-67
2021/06/18 00:32:41;;;;;;;11.95;7.53;;;25.40;50.30;;;;;;6235457;28;80896;-68
2021/06/18 00:35:42;;;;;;;11.82;7.45;;;25.40;50.10;;;;;;6241453;27;80460;-67
2021/06/18 00:38:42;;;;;;;14.65;8.00;;;25.40;50.10;;;;;;6235551;28;80863;-68
2021/06/18 00:41:43;;;;;;;12.15;7.50;;;25.40;50.20;;;;;;6242767;28;80226;-67
2021/06/18 00:44:43;;;;;;;11.43;7.18;;;25.40;50.20;;;;;;6231431;28;80624;-68
2021/06/18 00:47:44;;;;;;;12.73;6.32;;;25.40;50.80;;;;;;6237376;28;83364;-68
2021/06/18 00:50:44;;;;;;;10.90;7.13;;;25.40;50.10;;;;;;6232757;27;80411;-69
2021/06/18 00:53:45;;;;;;;11.77;7.15;;;25.40;50.20;;;;;;6237547;27;81421;-67
2021/06/18 00:56:45;;;;;;;9.30;6.85;;;25.40;50.10;;;;;;6236833;27;80498;-68
2021/06/18 00:59:46;;;;;;;16.85;8.10;;;25.30;50.10;;;;;;6246740;27;80447;-68
2021/06/18 01:02:46;;;;;;;11.10;7.25;;;25.30;50.10;;;;;;6235987;27;80484;-67
2021/06/18 01:05:47;;;;;;;14.98;7.28;;;25.30;50.00;;;;;;6244806;27;80184;-67
2021/06/18 01:08:47;;;;;;;10.52;6.55;;;25.40;50.00;;;;;;6233521;27;80407;-67
2021/06/18 01:11:48;;;;;;;13.45;7.90;;;25.30;49.90;;;;;;6233837;28;80668;-67
2021/06/18 01:14:48;;;;;;;12.30;7.40;;;25.30;49.80;;;;;;6235016;27;80628;-67
2021/06/18 01:17:49;;;;;;;10.52;7.35;;;25.30;50.10;;;;;;6234984;27;80715;-67
2021/06/18 01:20:50;;;;;;;11.52;6.57;;;25.30;50.10;;;;;;6236173;27;80280;-67
2021/06/18 01:23:50;;;;;;;10.93;6.78;;;25.30;50.00;;;;;;6241029;27;80417;-67
2021/06/18 01:26:51;;;;;;;9.23;6.53;;;25.30;50.00;;;;;;6242025;28;80370;-67
2021/06/18 01:29:51;;;;;;;11.27;7.60;;;25.30;50.20;;;;;;6235385;28;80279;-67
2021/06/18 01:32:52;;;;;;;11.63;7.97;;;25.30;50.00;;;;;;6234006;28;82665;-67
2021/06/18 01:35:52;;;;;;;9.57;6.65;;;25.30;49.90;;;;;;6234999;27;80699;-67
2021/06/18 01:38:53;;;;;;;10.05;6.88;;;25.30;50.00;;;;;;6233217;28;80315;-67
2021/06/18 01:41:53;;;;;;;9.88;6.63;;;25.30;49.90;;;;;;6232672;27;81404;-67
2021/06/18 01:44:54;;;;;;;9.73;5.93;;;25.30;50.00;;;;;;6231143;27;83047;-67
2021/06/18 01:47:54;;;;;;;9.50;7.03;;;25.30;49.90;;;;;;6233906;28;81313;-67
2021/06/18 01:50:55;;;;;;;12.25;7.25;;;25.30;49.90;;;;;;6216110;28;82215;-67
2021/06/18 01:53:55;;;;;;;12.13;7.05;;;25.30;50.00;;;;;;6233613;28;83347;-67
2021/06/18 01:56:56;;;;;;;12.82;7.35;;;25.30;49.90;;;;;;6233455;27;80887;-67
2021/06/18 01:59:56;;;;;;;13.98;8.05;;;25.30;49.80;;;;;;6234988;28;80893;-68
2021/06/18 02:02:57;;;;;;;10.05;6.88;;;25.30;49.90;;;;;;6235733;27;80443;-68
2021/06/18 02:05:57;;;;;;;9.70;7.07;;;25.30;49.80;;;;;;6231218;27;80627;-68
2021/06/18 02:08:58;;;;;;;10.07;6.97;;;25.30;49.70;;;;;;6226613;27;80668;-68
2021/06/18 02:11:58;;;;;;;9.07;7.38;;;25.30;49.90;;;;;;6233268;27;80395;-68
2021/06/18 02:14:59;;;;;;;11.93;7.60;;;25.30;49.80;;;;;;6238312;28;83140;-68
2021/06/18 02:17:59;;;;;;;10.23;6.72;;;25.30;49.80;;;;;;6233601;28;80922;-68
2021/06/18 02:21:00;;;;;;;14.88;7.38;;;25.30;49.80;;;;;;6241659;27;81441;-69
2021/06/18 02:24:00;;;;;;;9.50;7.20;;;25.20;49.90;;;;;;6234417;27;80845;-68
2021/06/18 02:27:01;;;;;;;9.32;7.07;;;25.20;49.80;;;;;;6239726;28;80268;-68
2021/06/18 02:30:01;;;;;;;12.30;7.30;;;25.20;49.70;;;;;;6232009;27;86222;-68
2021/06/18 02:33:02;;;;;;;11.48;7.72;;;25.20;49.80;;;;;;6227692;28;81941;-68
2021/06/18 02:36:02;;;;;;;10.50;7.82;;;25.20;49.60;;;;;;6237299;27;81483;-67
2021/06/18 02:39:03;;;;;;;10.70;6.78;;;25.20;49.50;;;;;;6234983;28;81001;-67
2021/06/18 02:42:03;;;;;;;11.48;7.43;;;25.20;49.50;;;;;;6233726;28;81404;-67
2021/06/18 02:45:04;;;;;;;11.20;7.38;;;25.20;49.50;;;;;;6231986;27;80405;-67
2021/06/18 02:48:04;;;;;;;11.25;7.22;;;25.20;49.50;;;;;;6232348;27;80887;-68
2021/06/18 02:51:05;;;;;;;11.93;7.40;;;25.20;49.60;;;;;;6232698;28;80536;-68
2021/06/18 02:54:05;;;;;;;9.50;6.78;;;25.20;49.80;;;;;;6232466;27;81480;-68
2021/06/18 02:57:06;;;;;;;10.75;7.00;;;25.20;49.80;;;;;;6233098;28;80494;-68
2021/06/18 03:00:06;;;;;;;13.23;7.57;;;25.20;49.60;;;;;;6232467;27;81547;-66
2021/06/18 03:03:07;;;;;;;10.82;6.70;;;25.20;49.40;;;;;;6232626;27;80752;-66
2021/06/18 03:06:07;;;;;;;12.48;6.78;;;25.20;49.70;;;;;;6223992;27;80424;-66
2021/06/18 03:09:08;;;;;;;15.40;8.07;;;25.20;49.40;;;;;;6233825;27;80318;-66
2021/06/18 03:12:08;;;;;;;15.95;6.82;;;25.20;49.50;;;;;;6233530;27;81198;-68
2021/06/18 03:15:09;;;;;;;11.75;7.35;;;25.20;49.40;;;;;;6233295;27;80441;-68
2021/06/18 03:18:09;;;;;;;13.63;7.25;;;25.20;49.60;;;;;;6232908;28;81323;-68
2021/06/18 03:21:10;;;;;;;11.57;7.32;;;25.20;49.90;;;;;;6233175;27;80889;-67
2021/06/18 03:24:10;;;;;;;15.05;7.82;;;25.20;49.70;;;;;;6231182;28;80475;-69
2021/06/18 03:27:11;;;;;;;11.02;7.28;;;25.20;49.80;;;;;;6231052;28;81835;-69
2021/06/18 03:30:11;;;;;;;10.35;6.22;;;25.20;50.00;;;;;;6237316;27;80912;-70
2021/06/18 03:33:12;;;;;;;11.43;6.78;;;25.20;50.00;;;;;;6232174;28;80938;-70
2021/06/18 03:36:12;;;;;;;10.02;6.47;;;25.20;50.20;;;;;;6232833;27;80359;-69
2021/06/18 03:39:13;;;;;;;10.60;7.55;;;25.20;50.10;;;;;;6232791;28;80410;-68
2021/06/18 03:42:13;;;;;;;14.38;7.95;;;25.20;50.00;;;;;;6229990;27;81883;-68
2021/06/18 03:45:14;;;;;;;13.35;7.43;;;25.20;50.10;;;;;;6232243;27;80461;-68
2021/06/18 03:48:14;;;;;;;13.23;7.43;;;25.20;50.30;;;;;;6237078;28;81823;-68
2021/06/18 03:51:16;;;;;;;8.60;6.30;;;25.20;50.30;;;;;;6239452;27;80617;-69
2021/06/18 03:54:16;;;;;;;10.98;7.03;;;25.20;50.50;;;;;;6238233;27;80376;-69
2021/06/18 03:57:17;;;;;;;19.23;7.35;;;25.20;50.30;;;;;;6233936;27;81584;-66
2021/06/18 04:00:17;;;;;;;12.05;7.10;;;25.20;50.30;;;;;;6235243;27;81041;-66
2021/06/18 04:03:18;;;;;;;11.32;7.32;;;25.20;50.40;;;;;;6236330;27;80450;-67
2021/06/18 04:06:18;;;;;;;10.75;7.20;;;25.20;50.60;;;;;;6234287;28;80749;-66
2021/06/18 04:09:19;;;;;;;11.75;6.95;;;25.20;50.50;;;;;;6224191;28;80073;-68
2021/06/18 04:12:20;;;;;;;16.80;8.27;;;25.20;50.60;;;;;;6244971;27;80979;-67
2021/06/18 04:15:20;;;;;;;9.13;6.60;;;25.20;50.70;;;;;;6232819;27;80639;-65
2021/06/18 04:18:21;;;;;;;10.35;7.70;;;25.20;50.90;;;;;;6232084;27;85190;-67
2021/06/18 04:21:22;;;;;;;11.30;7.95;;;25.20;50.60;;;;;;6236614;27;82623;-67
2021/06/18 04:24:22;;;;;;;21.60;8.07;;;25.20;50.90;;;;;;6235020;27;81613;-66
2021/06/18 04:27:23;;;;;;;14.88;7.95;;;25.30;50.90;;;;;;6236636;28;80341;-66
2021/06/18 04:30:24;;;;;;;13.02;7.95;;;25.30;51.70;;;;;;6236974;28;80463;-66
2021/06/18 04:33:25;;;;;;;14.18;8.13;;;25.20;51.80;;;;;;6243844;27;80587;-68
2021/06/18 04:36:25;;;;;;;11.35;8.02;;;25.20;51.60;;;;;;6235004;28;81542;-66
2021/06/18 04:39:26;;;;;;;13.10;7.45;;;25.20;52.70;;;;;;6241144;27;81458;-67
2021/06/18 04:42:26;;;;;;;16.08;7.68;;;25.20;54.00;;;;;;6241275;27;81549;-67
2021/06/18 04:45:27;;;;;;;14.27;8.68;;;25.30;55.00;;;;;;6237132;27;80767;-67
2021/06/18 04:48:28;;;;;;;12.10;9.13;;;25.30;56.50;;;;;;6233506;27;80608;-67
2021/06/18 04:51:29;;;;;;;13.25;8.63;;;25.30;58.10;;;;;;6236531;27;80189;-68
2021/06/18 04:54:29;;;;;;;12.05;8.07;;;25.40;59.50;;;;;;6235754;28;80955;-68
2021/06/18 04:57:30;;;;;;;15.00;8.02;;;25.40;57.80;;;;;;6237178;27;81205;-68
2021/06/18 05:00:30;;;;;;;15.90;8.57;;;25.40;59.90;;;;;;6234944;28;80577;-67
2021/06/18 05:03:31;;;;;;;14.32;7.68;;;25.50;60.00;;;;;;6235267;27;80600;-69
2021/06/18 05:06:31;;;;;;;16.45;8.65;;;25.50;60.80;;;;;;6233873;27;80401;-68
2021/06/18 05:09:32;;;;;;;13.75;9.45;;;25.50;59.30;;;;;;6235973;27;81606;-67
2021/06/18 05:12:32;;;;;;;17.52;8.77;;;25.50;59.20;;;;;;6236003;27;80938;-67
2021/06/18 05:15:33;;;;;;;18.35;9.88;;;25.50;58.40;;;;;;6236605;28;80331;-68
2021/06/18 05:18:33;;;;;;;14.40;9.20;;;25.50;58.30;;;;;;6235293;27;81281;-68
2021/06/18 05:21:34;;;;;;;14.20;8.15;;;25.50;58.30;;;;;;6235509;28;80113;-68
2021/06/18 05:24:34;;;;;;;12.52;7.43;;;25.50;57.90;;;;;;6247829;27;80476;-67
2021/06/18 05:27:35;;;;;;;11.13;7.90;;;25.60;57.30;;;;;;6236383;27;80362;-69
2021/06/18 05:30:35;;;;;;;22.05;8.38;;;25.60;57.10;;;;;;6238684;27;80465;-67
2021/06/18 05:33:36;;;;;;;13.18;8.43;;;25.60;57.30;;;;;;6239405;27;80961;-68
2021/06/18 05:36:36;;;;;;;13.40;8.60;;;25.60;59.10;;;;;;6233531;28;80455;-69
2021/06/18 05:39:37;;;;;;;12.88;8.25;;;25.70;58.40;;;;;;6235302;28;80763;-69
2021/06/18 05:42:37;;;;;;;16.90;8.75;;;25.60;59.00;;;;;;6232424;27;80718;-68
2021/06/18 05:45:38;;;;;;;16.50;9.88;;;25.60;60.40;;;;;;6235286;27;81418;-67
2021/06/18 05:48:38;;;;;;;15.07;8.43;;;25.60;62.30;;;;;;6234919;27;80895;-67
2021/06/18 05:51:39;;;;;;;20.77;8.48;;;25.60;61.20;;;;;;6232758;27;81566;-68
2021/06/18 05:54:39;;;;;;;14.15;8.40;;;25.60;60.20;;;;;;6237097;27;80723;-68
2021/06/18 05:57:41;;;;;;;15.82;8.23;;;25.60;60.00;;;;;;6233525;27;80576;-68
2021/06/18 06:00:42;;;;;;;14.68;8.35;;;25.60;59.50;;;;;;6234499;27;80199;-69
2021/06/18 06:03:42;;;;;;;17.08;8.90;;;25.60;59.70;;;;;;6242799;27;80873;-67
2021/06/18 06:06:43;;;;;;;12.52;7.43;;;25.70;59.50;;;;;;6232763;28;80577;-68
2021/06/18 06:09:43;;;;;;;13.82;7.88;;;25.70;58.70;;;;;;6223343;28;80494;-68
2021/06/18 06:12:44;;;;;;;26.88;9.05;;;25.70;58.70;;;;;;6233077;27;80208;-66
2021/06/18 06:15:46;;;;;;;16.10;7.85;;;25.80;58.40;;;;;;6233086;28;80542;-67
2021/06/18 06:18:46;;;;;;;12.85;7.38;;;25.70;58.80;;;;;;6235738;28;81144;-68
2021/06/18 06:21:47;;;;;;;18.35;7.78;;;25.80;58.10;;;;;;6237700;27;80168;-68
2021/06/18 06:24:48;;;;;;;18.02;8.07;;;25.70;58.00;;;;;;6237178;28;80805;-67
2021/06/18 06:27:48;;;;;;;17.70;8.68;;;25.70;58.00;;;;;;6236904;27;80676;-67
2021/06/18 06:30:49;;;;;;;14.88;7.53;;;25.70;57.90;;;;;;6237351;27;80171;-66
2021/06/18 06:33:49;;;;;;;14.88;7.72;;;25.70;57.80;;;;;;6233798;27;80473;-67
2021/06/18 06:36:50;;;;;;;21.30;8.15;;;25.70;57.60;;;;;;6236514;27;80501;-67
2021/06/18 06:39:50;;;;;;;12.38;7.82;;;25.70;57.40;;;;;;6234078;27;80616;-65
2021/06/18 06:42:51;;;;;;;13.32;7.43;;;25.70;58.00;;;;;;6229884;27;80908;-66
2021/06/18 06:45:51;;;;;;;17.40;7.95;;;25.70;57.30;;;;;;6238902;28;81480;-67
2021/06/18 06:48:52;;;;;;;10.38;7.82;;;25.70;57.50;;;;;;6234774;27;80591;-68
2021/06/18 06:51:52;;;;;;;19.92;8.15;;;25.70;57.50;;;;;;6231517;28;81584;-66
2021/06/18 06:54:53;;;;;;;20.92;8.18;;;25.70;57.40;;;;;;6238070;27;80348;-66
2021/06/18 06:57:53;;;;;;;14.88;8.18;;;25.70;56.90;;;;;;6232020;27;81717;-67
2021/06/18 07:00:54;;;;;;;18.05;8.45;;;25.70;56.90;;;;;;6232532;27;80236;-66
2021/06/18 07:03:55;;;;;;;14.90;8.38;;;25.80;56.90;;;;;;6234326;28;80470;-66
2021/06/18 07:06:56;;;;;;;12.40;7.63;;;25.80;56.90;;;;;;6227357;27;80658;-63
2021/06/18 07:09:56;;;;;;;12.43;7.70;;;25.80;57.20;;;;;;6231263;27;81688;-65
2021/06/18 07:12:57;;;;;;;13.30;7.47;;;25.80;56.90;;;;;;6231850;28;80887;-69
2021/06/18 07:15:57;;;;;;;17.05;8.57;;;25.80;56.60;;;;;;6235195;27;80684;-67
2021/06/18 07:18:58;;;;;;;13.10;7.82;;;25.80;57.00;;;;;;6235978;27;80178;-67
2021/06/18 07:21:58;;;;;;;14.57;7.47;;;25.80;57.10;;;;;;6229164;27;80870;-66
2021/06/18 07:24:59;;;;;;;17.75;8.68;;;25.80;56.80;;;;;;6229231;27;80358;-65
2021/06/18 07:27:59;;;;;;;16.77;8.07;;;25.80;56.90;;;;;;6232997;27;81143;-66
2021/06/18 07:31:00;;;;;;;22.40;7.90;;;25.90;57.00;;;;;;6230865;28;80649;-68
2021/06/18 07:34:03;;;;;;;14.45;7.53;;;25.90;56.80;;;;;;6231671;27;80588;-66
2021/06/18 07:37:03;;;;;;;15.35;8.20;;;25.90;56.10;;;;;;6219343;28;81757;-69
2021/06/18 07:40:03;;;;;;;16.52;8.02;;;25.90;56.80;;;;;;6237191;28;80445;-69
2021/06/18 07:43:04;;;;;;;14.27;8.13;;;25.90;56.80;;;;;;6233052;28;83262;-68
2021/06/18 07:46:05;;;;;;;9.90;7.18;;;26.00;56.60;;;;;;6232978;28;81673;-67
2021/06/18 07:49:05;;;;;;;11.02;7.25;;;26.00;56.30;;;;;;6231140;27;80504;-69
2021/06/18 07:52:06;;;;;;;12.32;7.75;;;26.00;56.10;;;;;;6233807;27;81801;-68
2021/06/18 07:55:08;;;;;;;11.45;7.90;;;25.90;56.20;;;;;;6228889;28;80642;-67
2021/06/18 07:58:10;;;;;;;14.93;7.05;;;26.00;56.20;;;;;;6229256;27;80799;-69
2021/06/18 08:01:10;;;;;;;11.95;6.78;;;26.00;56.20;;;;;;6232538;27;80612;-70
2021/06/18 08:04:11;;;;;;;15.88;7.95;;;26.00;56.10;;;;;;6236061;28;80484;-68
2021/06/18 08:07:11;;;;;;;19.35;8.80;;;26.00;56.20;;;;;;6235131;28;80310;-71
2021/06/18 08:10:15;;;;;;;20.27;8.27;;;26.00;56.30;;;;;;6240219;27;81376;-68
2021/06/18 08:13:15;;;;;;;18.63;8.13;;;26.00;56.20;;;;;;6237211;27;80737;-67
2021/06/18 08:16:16;;;;;;;18.80;8.07;;;26.00;56.20;;;;;;6243133;27;81519;-68
2021/06/18 08:19:16;;;;;;;22.67;9.02;;;26.00;56.00;;;;;;6232649;27;80329;-68
2021/06/18 08:22:17;;;;;;;18.48;8.05;;;26.00;55.80;;;;;;6237812;27;80569;-68
2021/06/18 08:25:17;;;;;;;17.90;8.05;;;26.00;55.80;;;;;;6236391;27;80408;-67
2021/06/18 08:28:18;;;;;;;26.48;7.35;;;26.00;55.70;;;;;;6228697;27;80883;-66
2021/06/18 08:31:19;;;;;;;15.43;8.18;;;26.00;55.60;;;;;;6238429;27;80647;-68
2021/06/18 08:34:19;;;;;;;16.25;7.97;;;26.00;55.50;;;;;;6240674;27;80195;-67
2021/06/18 08:37:20;;;;;;;19.23;8.50;;;26.00;55.30;;;;;;6237762;27;81699;-67
2021/06/18 08:40:20;;;;;;;14.98;8.35;;;26.00;55.30;;;;;;6240424;27;83033;-67
2021/06/18 08:43:21;;;;;;;13.90;8.73;;;26.00;55.20;;;;;;6231748;27;83141;-67
2021/06/18 08:46:21;;;;;;;11.88;7.57;;;26.00;55.10;;;;;;6237025;27;80280;-68
2021/06/18 08:49:22;;;;;;;11.30;7.10;;;26.00;55.10;;;;;;6236226;28;80664;-68
2021/06/18 08:52:22;;;;;;;20.52;8.88;;;26.00;55.00;;;;;;6239927;28;81228;-67
2021/06/18 08:55:23;;;;;;;12.90;7.10;;;26.00;55.00;;;;;;6235160;27;80685;-68
2021/06/18 08:58:23;;;;;;;13.38;8.00;;;26.00;54.90;;;;;;6234877;27;80503;-68
2021/06/18 09:01:24;;;;;;;14.27;8.20;;;26.00;55.50;;;;;;6235606;27;80652;-67
2021/06/18 09:04:24;;;;;;;11.52;7.07;;;26.00;54.70;;;;;;6234851;28;81787;-68
2021/06/18 09:07:25;;;;;;;17.42;8.18;;;26.10;54.90;;;;;;6233827;27;80610;-67
2021/06/18 09:10:25;;;;;;;14.52;8.00;;;26.00;54.70;;;;;;6234898;27;81451;-68
2021/06/18 09:13:34;;;;;;;14.00;7.43;;;26.00;54.90;;;;;;6238760;27;80639;-67
2021/06/18 09:16:35;;;;;;;11.18;7.05;;;26.00;54.80;;;;;;6233607;27;80576;-67
2021/06/18 09:19:35;;;;;;;10.82;6.70;;;26.00;54.90;;;;;;6225264;28;80485;-68
2021/06/18 09:22:36;;;;;;;13.02;6.95;;;26.10;55.00;;;;;;6233747;28;82378;-67
2021/06/18 09:25:38;;;;;;;10.30;7.35;;;26.10;54.80;;;;;;6235610;28;80497;-67
2021/06/18 09:28:38;;;;;;;12.73;7.50;;;26.00;54.90;;;;;;6235576;27;81179;-67
2021/06/18 09:31:39;;;;;;;12.52;7.93;;;26.00;54.60;;;;;;6234126;28;81595;-67
2021/06/18 09:37:58;;;;;;;11.82;7.95;;;26.00;54.60;;;;;;6235658;27;80550;-67
2021/06/18 09:40:59;;;;;;;12.13;6.80;;;26.10;54.80;;;;;;6238045;27;80234;-67
2021/06/18 09:43:59;;;;;;;12.15;7.40;;;26.10;54.60;;;;;;6235126;27;80482;-67
2021/06/18 09:47:05;;;;;;;10.32;7.03;;;26.10;54.60;;;;;;6235958;28;81170;-67
2021/06/18 09:50:05;;;;;;;9.75;6.78;;;26.10;54.60;;;;;;6234113;28;81343;-67
2021/06/18 09:53:06;;;;;;;10.27;6.68;;;26.10;54.70;;;;;;6237556;27;81280;-72
2021/06/18 09:56:07;;;;;;;10.70;7.47;;;26.10;54.80;;;;;;6229747;27;80567;-67
2021/06/18 09:59:08;;;;;;;12.15;8.13;;;26.10;54.50;;;;;;6229166;27;80759;-66
2021/06/18 10:02:08;;;;;;;14.13;8.07;;;26.00;55.00;;;;;;6231079;28;81126;-66
2021/06/18 10:05:09;;;;;;;13.25;9.25;;;26.00;55.60;;;;;;6240184;27;80435;-66
2021/06/18 10:08:09;;;;;;;12.68;8.18;;;25.90;56.50;;;;;;6229916;27;80662;-64
2021/06/18 10:11:10;;;;;;;16.88;8.00;;;26.00;56.20;;;;;;6234572;27;80851;-66
2021/06/18 10:14:10;;;;;;;13.60;8.05;;;26.00;56.50;;;;;;6232203;27;80676;-65
2021/06/18 10:17:11;;;;;;;16.45;7.85;;;26.00;56.30;;;;;;6231995;28;83029;-66
2021/06/18 10:20:11;;;;;;;11.75;7.65;;;26.10;56.50;;;;;;6233799;27;80142;-66
2021/06/18 10:23:12;;;;;;;16.55;7.10;;;26.10;57.20;;;;;;6238464;28;80694;-65
2021/06/18 10:26:14;;;;;;;14.32;7.18;;;26.10;57.00;;;;;;6230006;27;80231;-66
2021/06/18 10:29:14;;;;;;;11.75;6.93;;;26.20;56.80;;;;;;6231281;27;81503;-66
2021/06/18 10:32:15;;;;;;;14.85;8.10;;;26.20;56.60;;;;;;6233021;27;80606;-65
2021/06/18 10:35:15;;;;;;;8.27;6.85;;;26.20;56.30;;;;;;6228655;28;80879;-64
2021/06/18 10:38:16;;;;;;;10.55;6.90;;;26.20;55.90;;;;;;6239484;27;80418;-64
2021/06/18 10:41:16;;;;;;;13.65;6.72;;;26.20;55.80;;;;;;6230499;27;81747;-66
2021/06/18 10:44:17;;;;;;;10.82;6.78;;;26.20;55.50;;;;;;6228289;27;81527;-63
2021/06/18 10:47:17;;;;;;;13.50;6.95;;;26.20;55.40;;;;;;6233032;27;80519;-65
2021/06/18 10:50:18;;;;;;;8.98;6.35;;;26.20;55.10;;;;;;6233155;28;80174;-67
2021/06/18 10:53:19;;;;;;;10.25;6.53;;;26.20;55.40;;;;;;6233048;27;80752;-67
2021/06/18 10:56:19;;;;;;;9.07;6.63;;;26.20;55.20;;;;;;6230049;27;81449;-66
2021/06/18 10:59:20;;;;;;;11.95;7.88;;;26.20;54.90;;;;;;6230042;28;80467;-65
2021/06/18 11:02:25;;;;;;;11.55;6.28;;;26.20;54.70;;;;;;6225120;27;81190;-66
2021/06/18 11:05:26;;;;;;;8.60;6.22;;;26.10;54.50;;;;;;6227703;27;83300;-66
2021/06/18 11:08:28;;;;;;;9.48;6.43;;;26.20;54.20;;;;;;6227350;27;80690;-66
2021/06/18 11:11:29;;;;;;;7.20;5.60;;;26.10;54.00;;;;;;6225967;27;80596;-66
2021/06/18 11:14:29;;;;;;;7.15;5.43;;;26.20;53.90;;;;;;6224237;28;80867;-66
2021/06/18 11:17:30;;;;;;;8.43;6.05;;;26.20;53.70;;;;;;6227157;27;80532;-66
2021/06/18 11:20:30;;;;;;;10.77;5.47;;;26.20;53.70;;;;;;6228083;28;80778;-66
2021/06/18 11:23:32;;;;;;;8.35;5.90;;;26.20;53.60;;;;;;6232374;27;82241;-65
2021/06/18 11:26:33;;;;;;;7.90;5.78;;;26.30;53.70;;;;;;6226945;28;80459;-66
2021/06/18 11:29:33;;;;;;;10.65;5.72;;;26.30;53.70;;;;;;6223904;27;80886;-65
2021/06/18 11:32:34;;;;;;;9.65;5.90;;;26.30;53.50;;;;;;6228176;28;81394;-65
2021/06/18 11:35:34;;;;;;;7.20;5.43;;;26.30;53.30;;;;;;6225830;27;81423;-66
2021/06/18 11:38:35;;;;;;;7.45;5.50;;;26.30;53.30;;;;;;6227707;28;80501;-66
2021/06/18 11:41:43;;;;;;;7.13;5.90;;;26.40;53.40;;;;;;6228747;28;80149;-65
2021/06/18 11:44:43;;;;;;;7.38;5.53;;;26.40;52.90;;;;;;6230196;27;80632;-65
2021/06/18 11:47:44;;;;;;;9.68;5.55;;;26.40;53.00;;;;;;6228727;27;80797;-65
2021/06/18 11:50:44;;;;;;;7.97;5.78;;;26.40;52.90;;;;;;6224732;28;81558;-66
2021/06/18 11:53:45;;;;;;;6.63;5.65;;;26.40;53.20;;;;;;6225427;28;81384;-67
2021/06/18 11:56:45;;;;;;;8.00;5.60;;;26.40;53.00;;;;;;6228260;28;80295;-66
2021/06/18 11:59:46;;;;;;;11.63;6.30;;;26.40;53.10;;;;;;6230588;28;80829;-67
2021/06/18 12:02:52;;;;;;;7.93;6.07;;;26.40;53.30;;;;;;6227491;28;80871;-67
2021/06/18 12:05:53;;;;;;;6.20;5.25;;;26.40;53.30;;;;;;6228033;28;81373;-66
2021/06/18 12:08:53;;;;;;;8.02;5.95;;;26.40;53.10;;;;;;6236766;27;80915;-67
2021/06/18 12:11:54;;;;;;;5.72;5.13;;;26.40;53.00;;;;;;6236334;27;80345;-67
2021/06/18 12:14:55;;;;;;;5.90;5.22;;;26.40;53.50;;;;;;6241994;27;84410;-68
2021/06/18 12:17:56;;;;;;;7.20;5.70;;;26.40;53.40;;;;;;6242722;27;80718;-67
2021/06/18 12:20:56;;;;;;;5.30;4.80;;;26.40;53.40;;;;;;6237318;27;80746;-66
2021/06/18 12:23:57;;;;;;;7.30;5.78;;;26.40;53.50;;;;;;6236458;27;80686;-67
2021/06/18 12:26:58;;;;;;;8.63;6.05;;;26.40;53.40;;;;;;6231494;27;80853;-68
2021/06/18 12:29:58;;;;;;;6.90;5.90;;;26.40;53.80;;;;;;6242236;28;80612;-68
2021/06/18 12:32:59;;;;;;;7.45;4.95;;;26.40;53.60;;;;;;6232414;27;81670;-67
2021/06/18 12:35:59;;;;;;;7.30;5.50;;;26.40;53.50;;;;;;6234533;27;81183;-67
2021/06/18 12:39:00;;;;;;;6.05;4.88;;;26.40;53.70;;;;;;6231904;27;80648;-68
2021/06/18 12:42:00;;;;;;;7.28;4.65;;;26.40;53.60;;;;;;6243364;27;80627;-67
2021/06/18 12:45:01;;;;;;;8.88;5.93;;;26.40;53.60;;;;;;6236058;27;80959;-68
2021/06/18 12:48:02;;;;;;;8.07;6.07;;;26.40;53.50;;;;;;6234396;27;86336;-67
2021/06/18 12:51:02;;;;;;;7.35;5.43;;;26.40;53.60;;;;;;6235948;27;80626;-67
2021/06/18 12:54:03;;;;;;;6.82;5.70;;;26.40;53.70;;;;;;6227704;28;81095;-66
2021/06/18 12:57:03;;;;;;;7.43;5.55;;;26.40;53.70;;;;;;6241840;27;81968;-66
2021/06/18 13:00:07;;;;;;;8.32;6.25;;;26.40;53.90;;;;;;6234513;28;80737;-67
2021/06/18 13:03:07;;;;;;;8.18;5.95;;;26.40;53.80;;;;;;6235788;27;81390;-66
2021/06/18 13:06:08;;;;;;;8.00;5.93;;;26.50;54.10;;;;;;6235838;27;80079;-66
2021/06/18 13:09:08;;;;;;;10.52;6.43;;;26.50;54.10;;;;;;6236877;27;83284;-66
2021/06/18 13:12:09;;;;;;;8.65;6.25;;;26.40;54.20;;;;;;6236229;27;81935;-65
2021/06/18 13:15:10;;;;;;;7.35;5.68;;;26.40;54.30;;;;;;6236279;27;80482;-66
2021/06/18 13:18:11;;;;;;;8.77;6.38;;;26.50;54.30;;;;;;6234511;27;81400;-66
2021/06/18 13:21:11;;;;;;;8.00;5.90;;;26.40;54.40;;;;;;6234814;28;86451;-65
2021/06/18 13:24:12;;;;;;;7.88;6.20;;;26.40;54.40;;;;;;6234750;27;80320;-65
2021/06/18 13:27:12;;;;;;;7.85;5.50;;;26.50;54.90;;;;;;6230360;28;81076;-66
2021/06/18 13:30:13;;;;;;;7.15;5.38;;;26.50;54.90;;;;;;6230405;27;81634;-66
2021/06/18 13:33:13;;;;;;;9.32;5.78;;;26.50;54.70;;;;;;6233057;27;80788;-66
2021/06/18 13:36:14;;;;;;;13.38;5.88;;;26.50;54.70;;;;;;6227953;28;80381;-67
2021/06/18 13:39:14;;;;;;;9.57;5.68;;;26.50;55.20;;;;;;6242104;27;80434;-66
2021/06/18 13:42:15;;;;;;;8.90;5.60;;;26.50;55.40;;;;;;6237629;28;80536;-65
2021/06/18 13:45:16;;;;;;;9.30;5.07;;;26.50;54.90;;;;;;6236669;27;81100;-65
2021/06/18 13:48:16;;;;;;;6.68;5.38;;;26.50;54.90;;;;;;6236637;28;80868;-64
2021/06/18 13:51:17;;;;;;;7.32;5.55;;;26.50;54.80;;;;;;6236665;28;80470;-67
2021/06/18 13:54:17;;;;;;;7.00;5.10;;;26.50;54.60;;;;;;6234178;27;80618;-65
2021/06/18 13:57:18;;;;;;;7.70;5.43;;;26.50;54.70;;;;;;6233646;28;80987;-65
2021/06/18 14:00:18;;;;;;;7.53;5.40;;;26.50;54.70;;;;;;6235364;28;80575;-66
2021/06/18 14:03:19;;;;;;;6.57;4.85;;;26.50;54.60;;;;;;6234202;28;81048;-65
2021/06/18 14:06:19;;;;;;;8.18;5.20;;;26.50;54.40;;;;;;6239934;27;80535;-65
2021/06/18 14:09:20;;;;;;;5.72;4.88;;;26.50;54.20;;;;;;6233128;27;81685;-64
2021/06/18 14:12:21;;;;;;;6.43;5.63;;;26.50;54.70;;;;;;6233629;28;80218;-65
2021/06/18 14:15:27;;;;;;;6.78;4.57;;;26.40;54.30;;;;;;6233700;27;81482;-65
2021/06/18 14:18:27;;;;;;;8.73;5.38;;;26.40;54.40;;;;;;6234162;27;80878;-66
2021/06/18 14:21:28;;;;;;;5.93;4.78;;;26.50;54.80;;;;;;6232169;27;81450;-66
2021/06/18 14:24:29;;;;;;;5.70;4.90;;;26.50;54.40;;;;;;6233158;28;80653;-65
2021/06/18 14:27:29;;;;;;;5.75;4.68;;;26.50;53.80;;;;;;6239901;28;80878;-66
2021/06/18 14:30:30;;;;;;;5.70;4.30;;;26.40;53.80;;;;;;6233457;27;80438;-65
2021/06/18 14:33:30;;;;;;;6.75;4.70;;;26.40;54.00;;;;;;6230579;27;80607;-67
2021/06/18 14:36:31;;;;;;;13.75;5.60;;;26.50;53.70;;;;;;6232896;27;80528;-66
2021/06/18 14:39:31;;;;;;;12.32;5.05;;;26.50;53.90;;;;;;6231642;27;80719;-66
2021/06/18 14:42:32;;;;;;;12.70;5.13;;;26.50;52.60;;;;;;6233045;27;80854;-66
2021/06/18 14:45:32;;;;;;;7.28;5.00;;;26.60;52.50;;;;;;6234415;27;80287;-66
2021/06/18 14:48:33;;;;;;;10.38;5.18;;;26.50;52.70;;;;;;6232152;27;80154;-66
2021/06/18 14:51:38;;;;;;;9.90;5.50;;;26.60;52.40;;;;;;6232926;28;80614;-65
2021/06/18 14:54:40;;;;;;;8.52;4.60;;;26.70;50.90;;;;;;6225121;27;81341;-66
2021/06/18 14:57:41;;;;;;;11.48;4.80;;;26.70;52.00;;;;;;6232173;27;81866;-66
2021/06/18 15:00:41;;;;;;;7.35;5.55;;;26.60;52.30;;;;;;6235409;27;80388;-67
2021/06/18 15:03:43;;;;;;;8.73;5.15;;;26.60;53.10;;;;;;6232742;27;80266;-65
2021/06/18 15:06:43;;;;;;;7.05;5.05;;;26.60;52.60;;;;;;6230356;28;81556;-65
2021/06/18 15:09:45;;;;;;;8.93;5.15;;;26.60;51.10;;;;;;6225384;28;80267;-65
2021/06/18 15:12:46;;;;;;;8.57;5.18;;;26.70;51.40;;;;;;6231686;27;80198;-65
2021/06/18 15:15:46;;;;;;;7.32;5.63;;;26.70;51.50;;;;;;6230684;28;80514;-66
2021/06/18 15:18:47;;;;;;;6.10;4.93;;;26.60;51.60;;;;;;6228383;28;80984;-66
2021/06/18 15:21:48;;;;;;;7.78;5.00;;;26.60;51.80;;;;;;6226199;28;80850;-66
2021/06/18 15:24:48;;;;;;;7.45;5.43;;;26.60;51.70;;;;;;6231435;28;80498;-66
2021/06/18 15:27:49;;;;;;;7.43;5.47;;;26.70;50.30;;;;;;6227700;27;81018;-66
2021/06/18 15:30:49;;;;;;;6.90;5.25;;;26.70;50.50;;;;;;6231679;28;80507;-67
2021/06/18 15:33:50;;;;;;;7.55;5.10;;;26.70;50.80;;;;;;6240798;27;81669;-66
2021/06/18 15:36:50;;;;;;;7.10;5.25;;;26.70;51.30;;;;;;6237063;27;81524;-66